createdAt,value
2019-05-14T00:00:23.832Z,1.00
2019-05-14T00:02:52.140Z,0.90
2019-05-14T00:05:21.588Z,1.07
2019-05-14T00:07:51.960Z,1.10
2019-05-14T00:10:21.681Z,1.30
2019-05-14T00:12:51.248Z,1.00
2019-05-14T00:15:21.502Z,1.00
2019-05-14T00:17:49.007Z,0.90
2019-05-14T00:20:17.159Z,0.90
2019-05-14T00:22:45.161Z,1.10
2019-05-14T00:25:13.224Z,1.10
2019-05-14T00:27:41.560Z,1.20
2019-05-14T00:30:11.520Z,1.00
2019-05-14T00:32:41.481Z,1.00
2019-05-14T00:35:11.080Z,0.90
2019-05-14T00:37:41.285Z,1.00
2019-05-14T00:40:11.585Z,1.10
2019-05-14T00:42:41.141Z,1.10
2019-05-14T00:45:11.383Z,0.90
2019-05-14T00:47:41.563Z,1.00
2019-05-14T00:50:11.239Z,1.00
2019-05-14T00:52:39.278Z,0.70
2019-05-14T00:55:08.065Z,0.90
2019-05-14T00:57:36.089Z,1.03
2019-05-14T01:00:04.554Z,0.90
2019-05-14T01:02:32.580Z,1.00
2019-05-14T01:05:01.903Z,1.10
2019-05-14T01:07:31.650Z,1.00
2019-05-14T01:10:01.313Z,1.00
2019-05-14T01:12:31.465Z,1.00
2019-05-14T01:15:07.757Z,0.80
2019-05-14T01:17:31.177Z,0.90
2019-05-14T01:19:59.012Z,1.03
2019-05-14T01:22:26.974Z,0.60
2019-05-14T01:24:54.909Z,1.10
2019-05-14T01:27:22.769Z,1.10
2019-05-14T01:29:51.343Z,1.10
2019-05-14T01:32:21.930Z,0.83
2019-05-14T01:34:49.493Z,1.03
2019-05-14T01:37:17.388Z,0.83
2019-05-14T01:39:45.368Z,0.90
2019-05-14T01:42:13.287Z,0.80
2019-05-14T01:44:41.585Z,1.30
2019-05-14T01:47:09.707Z,0.80
2019-05-14T01:49:37.600Z,1.17
2019-05-14T01:52:05.661Z,1.27
2019-05-14T01:54:33.656Z,0.90
2019-05-14T01:57:02.081Z,1.10
2019-05-14T01:59:32.200Z,1.00
2019-05-14T02:02:02.147Z,0.90
2019-05-14T02:04:31.637Z,1.10
2019-05-14T02:07:01.790Z,1.10
2019-05-14T02:09:31.068Z,1.00
2019-05-14T02:11:59.232Z,1.20
2019-05-14T02:14:27.166Z,0.90
2019-05-14T02:16:55.020Z,1.03
2019-05-14T02:19:22.955Z,0.90
2019-05-14T02:21:51.407Z,0.87
2019-05-14T02:24:21.672Z,1.00
2019-05-14T02:26:51.272Z,0.90
2019-05-14T02:29:21.294Z,0.80
2019-05-14T02:31:50.444Z,0.87
2019-05-14T02:34:19.831Z,0.90
2019-05-14T02:36:49.722Z,0.80
2019-05-14T02:39:19.643Z,0.90
2019-05-14T02:41:49.968Z,0.90
2019-05-14T02:44:18.896Z,0.83
2019-05-14T02:46:50.245Z,1.10
2019-05-14T02:49:19.255Z,0.70
2019-05-14T02:51:50.065Z,0.90
2019-05-14T02:54:16.198Z,1.00
2019-05-14T02:56:44.214Z,0.80
2019-05-14T02:59:12.246Z,0.80
2019-05-14T03:01:40.973Z,0.80
2019-05-14T03:04:09.275Z,0.90
2019-05-14T03:06:39.520Z,0.93
2019-05-14T03:09:09.734Z,0.90
2019-05-14T03:11:40.079Z,0.90
2019-05-14T03:14:09.000Z,1.03
2019-05-14T03:16:40.030Z,1.00
2019-05-14T03:19:06.194Z,0.93
2019-05-14T03:21:34.029Z,1.00
2019-05-14T03:24:02.113Z,0.70
2019-05-14T03:26:30.043Z,0.93
2019-05-14T03:29:00.124Z,0.70
2019-05-14T03:31:33.254Z,0.90
2019-05-14T03:34:02.772Z,0.90
2019-05-14T03:36:34.218Z,0.87
2019-05-14T03:38:59.411Z,0.90
2019-05-14T03:41:30.364Z,1.00
2019-05-14T03:43:59.796Z,0.90
2019-05-14T03:46:43.950Z,1.00
2019-05-14T03:48:59.834Z,0.93
2019-05-14T03:51:26.047Z,0.90
2019-05-14T03:54:01.645Z,1.00
2019-05-14T03:56:24.231Z,0.90
2019-05-14T03:58:52.092Z,1.00
2019-05-14T04:01:20.908Z,1.10
2019-05-14T04:03:50.355Z,1.10
2019-05-14T04:06:19.529Z,1.10
2019-05-14T04:08:49.726Z,1.07
2019-05-14T04:11:24.146Z,1.20
2019-05-14T04:13:56.158Z,0.77
2019-05-14T04:16:25.535Z,0.97
2019-05-14T04:18:59.185Z,1.07
2019-05-14T04:21:29.735Z,0.80
2019-05-14T04:23:59.453Z,1.20
2019-05-14T04:26:30.247Z,1.10
2019-05-14T04:29:00.537Z,1.10
2019-05-14T04:31:31.295Z,1.10
2019-05-14T04:34:01.658Z,1.00
2019-05-14T04:36:30.293Z,1.10
2019-05-14T04:39:00.581Z,1.30
2019-05-14T04:41:29.882Z,1.13
2019-05-14T04:43:59.477Z,1.10
2019-05-14T04:46:30.323Z,1.10
2019-05-14T04:48:59.106Z,1.07
2019-05-14T04:51:30.252Z,1.23
2019-05-14T04:53:59.806Z,1.10
2019-05-14T04:56:29.912Z,1.10
2019-05-14T04:58:58.988Z,1.20
2019-05-14T05:01:29.255Z,1.07
2019-05-14T05:03:59.130Z,1.00
2019-05-14T05:06:28.853Z,1.00
2019-05-14T05:08:55.916Z,1.10
2019-05-14T05:11:28.866Z,0.97
2019-05-14T05:13:55.413Z,1.00
2019-05-14T05:16:23.388Z,1.17
2019-05-14T05:18:51.288Z,0.90
2019-05-14T05:21:19.832Z,1.10
2019-05-14T05:23:49.340Z,0.97
2019-05-14T05:26:18.460Z,0.90
2019-05-14T05:29:01.814Z,0.97
2019-05-14T05:31:18.527Z,1.00
2019-05-14T05:33:48.751Z,1.20
2019-05-14T05:36:18.334Z,1.00
2019-05-14T05:38:48.603Z,0.80
2019-05-14T05:41:18.803Z,1.10
2019-05-14T05:43:48.217Z,1.00
2019-05-14T05:46:15.829Z,1.00
2019-05-14T05:48:44.297Z,0.87
2019-05-14T05:51:12.267Z,0.93
2019-05-14T05:53:40.158Z,1.00
2019-05-14T05:56:08.988Z,1.10
2019-05-14T05:58:39.477Z,0.90
2019-05-14T06:01:09.361Z,0.90
2019-05-14T06:03:39.054Z,1.40
2019-05-14T06:06:13.237Z,1.00
2019-05-14T06:08:35.862Z,1.10
2019-05-14T06:11:03.863Z,1.10
2019-05-14T06:13:31.829Z,0.83
2019-05-14T06:16:00.576Z,1.00
2019-05-14T06:18:28.760Z,1.07
2019-05-14T06:20:58.519Z,1.23
2019-05-14T06:23:28.493Z,1.17
2019-05-14T06:25:59.401Z,1.00
2019-05-14T06:28:30.159Z,1.20
2019-05-14T06:30:55.870Z,1.00
2019-05-14T06:33:23.983Z,1.03
2019-05-14T06:35:51.825Z,1.20
2019-05-14T06:38:19.711Z,1.17
2019-05-14T06:40:48.966Z,1.40
2019-05-14T06:43:18.987Z,1.10
2019-05-14T06:45:49.536Z,1.27
2019-05-14T06:48:29.945Z,1.10
2019-05-14T06:50:46.780Z,1.37
2019-05-14T06:53:14.796Z,1.20
2019-05-14T06:55:42.666Z,1.13
2019-05-14T06:58:10.665Z,1.40
2019-05-14T07:00:39.407Z,1.07
2019-05-14T07:03:08.900Z,1.00
2019-05-14T07:05:38.977Z,1.00
2019-05-14T07:08:08.935Z,1.20
2019-05-14T07:10:39.292Z,1.20
2019-05-14T07:13:08.628Z,1.20
2019-05-14T07:15:38.553Z,1.10
2019-05-14T07:18:08.460Z,1.57
2019-05-14T07:20:35.916Z,1.73
2019-05-14T07:23:04.050Z,1.60
2019-05-14T07:25:32.377Z,1.63
2019-05-14T07:28:00.327Z,2.20
2019-05-14T07:30:29.081Z,2.00
2019-05-14T07:32:58.821Z,1.37
2019-05-14T07:35:28.818Z,1.40
2019-05-14T07:37:59.112Z,1.20
2019-05-14T07:41:28.438Z,1.20
2019-05-14T07:43:58.491Z,1.20
2019-05-14T07:46:28.293Z,1.10
2019-05-14T07:49:05.375Z,1.23
2019-05-14T07:51:28.179Z,1.07
2019-05-14T07:53:57.827Z,1.00
2019-05-14T07:56:25.664Z,1.00
2019-05-14T07:58:53.567Z,1.20
2019-05-14T08:01:21.549Z,1.10
2019-05-14T08:03:49.496Z,1.20
2019-05-14T08:06:18.981Z,1.37
2019-05-14T08:08:49.322Z,1.10
2019-05-14T08:11:24.308Z,1.20
2019-05-14T08:13:52.304Z,0.90
2019-05-14T08:16:20.146Z,1.40
2019-05-14T08:18:48.668Z,1.23
2019-05-14T08:21:19.340Z,1.20
2019-05-14T08:23:48.180Z,1.37
2019-05-14T08:26:19.186Z,1.43
2019-05-14T08:28:48.650Z,0.90
2019-05-14T08:31:18.414Z,1.23
2019-05-14T08:33:48.538Z,1.20
2019-05-14T08:36:18.168Z,1.40
2019-05-14T08:38:46.446Z,1.10
2019-05-14T08:41:15.361Z,1.30
2019-05-14T08:43:43.220Z,1.17
2019-05-14T08:46:11.400Z,1.37
2019-05-14T08:48:39.353Z,1.30
2019-05-14T08:51:09.072Z,1.37
2019-05-14T08:53:38.596Z,1.20
2019-05-14T08:56:08.412Z,1.10
2019-05-14T08:58:38.457Z,0.93
2019-05-14T09:01:08.245Z,1.10
2019-05-14T09:03:38.919Z,1.37
2019-05-14T09:06:05.999Z,1.23
2019-05-14T09:08:34.000Z,1.37
2019-05-14T09:11:02.225Z,1.10
2019-05-14T09:13:30.073Z,1.10
2019-05-14T09:15:59.898Z,1.30
2019-05-14T09:18:29.127Z,1.20
2019-05-14T09:20:59.353Z,1.23
2019-05-14T09:23:28.673Z,1.40
2019-05-14T09:25:58.836Z,1.20
2019-05-14T09:28:28.543Z,1.20
2019-05-14T09:30:59.201Z,1.50
2019-05-14T09:33:26.418Z,1.20
2019-05-14T09:36:09.933Z,1.10
2019-05-14T09:38:24.605Z,1.20
2019-05-14T09:41:07.084Z,1.20
2019-05-14T09:43:22.552Z,1.20
2019-05-14T09:45:50.526Z,1.30
2019-05-14T09:48:18.425Z,1.30
2019-05-14T09:50:48.746Z,1.20
2019-05-14T09:53:18.026Z,1.47
2019-05-14T09:55:45.889Z,1.20
2019-05-14T09:58:13.887Z,1.27
2019-05-14T10:00:41.763Z,1.10
2019-05-14T10:03:09.933Z,1.50
2019-05-14T10:05:37.931Z,1.37
2019-05-14T10:08:05.880Z,1.30
2019-05-14T10:10:33.647Z,1.20
2019-05-14T10:13:01.903Z,1.57
2019-05-14T10:15:50.303Z,1.23
2019-05-14T10:18:19.028Z,1.20
2019-05-14T10:20:49.357Z,1.37
2019-05-14T10:23:18.925Z,1.30
2019-05-14T10:25:46.784Z,1.13
2019-05-14T10:28:14.757Z,1.23
2019-05-14T10:30:42.877Z,1.17
2019-05-14T10:33:14.944Z,1.30
2019-05-14T10:35:40.379Z,1.33
2019-05-14T10:38:08.920Z,1.30
2019-05-14T10:40:38.557Z,1.30
2019-05-14T10:43:09.106Z,1.10
2019-05-14T10:45:38.468Z,1.13
2019-05-14T10:48:09.313Z,1.10
2019-05-14T10:50:52.260Z,0.90
2019-05-14T10:53:08.781Z,1.20
2019-05-14T10:55:38.488Z,1.27
2019-05-14T10:58:06.010Z,1.30
2019-05-14T11:00:34.264Z,1.30
2019-05-14T11:03:02.261Z,1.17
2019-05-14T11:05:30.261Z,1.33
2019-05-14T11:07:58.650Z,1.43
2019-05-14T11:10:29.558Z,1.30
2019-05-14T11:12:59.298Z,1.30
2019-05-14T11:15:59.929Z,1.27
2019-05-14T11:18:29.165Z,1.20
2019-05-14T11:21:17.989Z,1.20
2019-05-14T11:23:29.675Z,1.30
2019-05-14T11:25:58.147Z,1.33
2019-05-14T11:28:28.534Z,1.30
2019-05-14T11:30:56.085Z,1.23
2019-05-14T11:33:24.252Z,1.70
2019-05-14T11:35:52.243Z,1.50
2019-05-14T11:38:32.342Z,1.40
2019-05-14T11:40:50.016Z,1.50
2019-05-14T11:43:17.852Z,1.20
2019-05-14T11:45:48.309Z,1.23
2019-05-14T11:48:15.748Z,1.30
2019-05-14T11:50:43.792Z,1.40
2019-05-14T11:53:11.794Z,1.20
2019-05-14T11:55:39.789Z,1.10
2019-05-14T11:58:08.713Z,1.30
2019-05-14T12:00:38.727Z,1.40
2019-05-14T12:03:09.252Z,1.20
2019-05-14T12:05:38.852Z,1.30
2019-05-14T12:08:08.698Z,2.10
2019-05-14T12:10:38.675Z,2.00
2019-05-14T12:13:08.535Z,1.83
2019-05-14T12:16:10.981Z,1.47
2019-05-14T12:18:41.772Z,1.30
2019-05-14T12:21:09.110Z,1.30
2019-05-14T12:23:39.281Z,1.47
2019-05-14T12:26:09.321Z,1.27
2019-05-14T12:28:38.664Z,1.40
2019-05-14T12:31:09.036Z,1.43
2019-05-14T12:33:39.238Z,1.40
2019-05-14T12:36:09.739Z,1.40
2019-05-14T12:38:38.228Z,1.40
2019-05-14T12:41:08.936Z,1.40
2019-05-14T12:43:35.944Z,1.50
2019-05-14T12:46:03.943Z,1.50
2019-05-14T12:48:31.975Z,1.67
2019-05-14T12:51:00.356Z,1.50
2019-05-14T12:53:28.906Z,1.30
2019-05-14T12:55:57.009Z,1.27
2019-05-14T12:58:24.946Z,1.30
2019-05-14T13:00:52.976Z,1.50
2019-05-14T13:03:21.022Z,1.30
2019-05-14T13:05:49.265Z,1.43
2019-05-14T13:08:18.403Z,1.40
2019-05-14T13:10:48.990Z,1.30
2019-05-14T13:13:16.301Z,1.50
2019-05-14T13:16:21.449Z,1.60
2019-05-14T13:18:49.919Z,1.40
2019-05-14T13:21:19.096Z,1.60
2019-05-14T13:23:48.757Z,1.37
2019-05-14T13:26:18.931Z,1.40
2019-05-14T13:28:50.771Z,1.20
2019-05-14T13:31:18.274Z,1.53
2019-05-14T13:33:48.867Z,1.20
2019-05-14T13:36:19.765Z,1.40
2019-05-14T13:38:48.775Z,1.20
2019-05-14T13:41:16.012Z,1.30
2019-05-14T13:43:43.933Z,1.20
2019-05-14T13:46:15.035Z,1.30
2019-05-14T13:48:43.411Z,1.20
2019-05-14T13:51:11.589Z,1.43
2019-05-14T13:53:39.592Z,1.40
2019-05-14T13:56:08.990Z,1.10
2019-05-14T13:58:37.300Z,1.00
2019-05-14T14:01:05.308Z,1.43
2019-05-14T14:03:33.174Z,1.23
2019-05-14T14:06:01.694Z,1.30
2019-05-14T14:08:29.804Z,2.03
2019-05-14T14:11:02.535Z,3.00
2019-05-14T14:13:28.917Z,4.10
2019-05-14T14:16:39.513Z,2.67
2019-05-14T14:19:08.720Z,2.30
2019-05-14T14:21:39.345Z,1.60
2019-05-14T14:24:09.342Z,1.40
2019-05-14T14:26:39.071Z,1.40
2019-05-14T14:29:08.664Z,1.37
2019-05-14T14:31:35.897Z,1.20
2019-05-14T14:34:03.986Z,1.30
2019-05-14T14:36:32.108Z,1.33
2019-05-14T14:39:00.105Z,1.47
2019-05-14T14:41:28.491Z,1.30
2019-05-14T14:43:56.653Z,1.20
2019-05-14T14:46:24.586Z,1.33
2019-05-14T14:48:52.554Z,1.30
2019-05-14T14:51:20.848Z,1.40
2019-05-14T14:53:58.827Z,1.37
2019-05-14T14:56:19.064Z,1.53
2019-05-14T14:58:49.240Z,1.50
2019-05-14T15:01:19.550Z,1.30
2019-05-14T15:03:49.634Z,1.37
2019-05-14T15:06:17.061Z,1.70
2019-05-14T15:08:45.031Z,1.60
2019-05-14T15:11:21.917Z,2.63
2019-05-14T15:13:49.711Z,2.20
2019-05-14T15:16:49.773Z,2.03
2019-05-14T15:19:19.328Z,2.20
2019-05-14T15:21:48.894Z,2.03
2019-05-14T15:24:19.676Z,1.80
2019-05-14T15:26:47.145Z,1.60
2019-05-14T15:29:15.228Z,1.80
2019-05-14T15:31:43.224Z,1.60
2019-05-14T15:34:11.130Z,1.63
2019-05-14T15:36:41.616Z,1.60
2019-05-14T15:39:09.670Z,1.50
2019-05-14T15:41:39.383Z,1.90
2019-05-14T15:44:08.987Z,1.70
2019-05-14T15:46:41.617Z,1.60
2019-05-14T15:49:09.012Z,1.90
2019-05-14T15:51:36.543Z,1.47
2019-05-14T15:54:16.295Z,1.43
2019-05-14T15:56:34.463Z,1.60
2019-05-14T15:59:02.561Z,1.60
2019-05-14T16:01:30.427Z,1.80
2019-05-14T16:03:58.815Z,1.80
2019-05-14T16:06:26.743Z,1.77
2019-05-14T16:08:54.783Z,1.57
2019-05-14T16:11:26.087Z,1.90
2019-05-14T16:13:54.009Z,1.60
2019-05-14T16:17:02.017Z,1.53
2019-05-14T16:19:29.971Z,1.80
2019-05-14T16:21:58.636Z,1.87
2019-05-14T16:24:28.541Z,1.57
2019-05-14T16:26:59.432Z,1.43
2019-05-14T16:29:40.521Z,1.67
2019-05-14T16:31:58.051Z,1.47
2019-05-14T16:34:25.636Z,1.63
2019-05-14T16:36:53.508Z,1.60
2019-05-14T16:39:21.805Z,1.70
2019-05-14T16:41:49.718Z,1.60
2019-05-14T16:44:18.885Z,1.50
2019-05-14T16:46:46.943Z,1.43
2019-05-14T16:49:14.918Z,1.30
2019-05-14T16:51:42.902Z,1.60
2019-05-14T16:54:10.875Z,2.00
2019-05-14T16:56:41.353Z,3.30
2019-05-14T16:59:09.034Z,3.27
2019-05-14T17:01:37.285Z,2.83
2019-05-14T17:04:05.249Z,2.20
2019-05-14T17:06:34.861Z,1.67
2019-05-14T17:09:04.866Z,1.70
2019-05-14T17:11:32.808Z,1.40
2019-05-14T17:14:01.166Z,3.10
2019-05-14T17:17:16.727Z,5.90
2019-05-14T17:19:43.527Z,4.20
2019-05-14T17:22:24.378Z,2.70
2019-05-14T17:24:41.765Z,3.67
2019-05-14T17:27:09.768Z,7.97
2019-05-14T17:29:39.060Z,5.20
2019-05-14T17:32:07.277Z,4.67
2019-05-14T17:34:35.169Z,3.83
2019-05-14T17:37:03.298Z,3.90
2019-05-14T17:39:31.153Z,2.83
2019-05-14T17:41:59.227Z,2.90
2019-05-14T17:44:27.384Z,2.37
2019-05-14T17:46:55.493Z,2.77
2019-05-14T17:49:23.754Z,3.20
2019-05-14T17:51:51.716Z,2.80
2019-05-14T17:54:19.724Z,3.00
2019-05-14T17:56:48.557Z,2.30
2019-05-14T17:59:19.103Z,2.30
2019-05-14T18:01:46.702Z,2.13
2019-05-14T18:04:14.621Z,1.90
2019-05-14T18:06:42.537Z,1.70
2019-05-14T18:09:10.662Z,2.43
2019-05-14T18:11:40.092Z,3.00
2019-05-14T18:14:11.929Z,2.97
2019-05-14T18:17:14.360Z,3.20
2019-05-14T18:19:37.995Z,3.17
2019-05-14T18:22:05.871Z,2.53
2019-05-14T18:24:34.069Z,2.10
2019-05-14T18:27:02.034Z,2.50
2019-05-14T18:29:29.987Z,2.80
2019-05-14T18:32:00.971Z,2.30
2019-05-14T18:34:28.443Z,2.60
2019-05-14T18:37:00.089Z,3.33
2019-05-14T18:39:28.349Z,3.10
2019-05-14T18:42:00.311Z,3.10
2019-05-14T18:44:28.382Z,3.60
2019-05-14T18:46:55.839Z,3.13
2019-05-14T18:49:24.602Z,2.70
2019-05-14T18:51:52.952Z,3.10
2019-05-14T18:54:20.972Z,3.10
2019-05-14T18:56:49.184Z,3.00
2019-05-14T18:59:21.284Z,3.07
2019-05-14T19:01:48.880Z,3.70
2019-05-14T19:04:18.672Z,3.73
2019-05-14T19:06:48.283Z,3.47
2019-05-14T19:09:18.563Z,3.00
2019-05-14T19:11:48.219Z,3.00
2019-05-14T19:14:29.073Z,2.43
2019-05-14T19:17:33.554Z,1.90
2019-05-14T19:20:02.224Z,1.97
2019-05-14T19:22:31.196Z,1.90
2019-05-14T19:25:01.347Z,2.33
2019-05-14T19:27:29.543Z,1.93
2019-05-14T19:29:59.484Z,2.17
2019-05-14T19:32:28.391Z,1.70
2019-05-14T19:34:56.473Z,1.67
2019-05-14T19:37:24.532Z,1.40
2019-05-14T19:39:52.674Z,1.63
2019-05-14T19:42:21.835Z,1.57
2019-05-14T19:44:50.181Z,1.50
2019-05-14T19:47:18.824Z,1.50
2019-05-14T19:49:48.484Z,1.60
2019-05-14T19:52:16.558Z,1.47
2019-05-14T19:54:44.644Z,1.43
2019-05-14T19:57:13.407Z,1.30
2019-05-14T19:59:41.856Z,1.50
2019-05-14T20:02:09.952Z,1.60
2019-05-14T20:04:37.984Z,1.80
2019-05-14T20:07:08.791Z,1.40
2019-05-14T20:09:36.116Z,1.50
2019-05-14T20:12:04.413Z,1.27
2019-05-14T20:15:09.276Z,1.30
2019-05-14T20:17:52.013Z,1.23
2019-05-14T20:20:20.406Z,1.23
2019-05-14T20:22:49.987Z,1.40
2019-05-14T20:25:34.867Z,1.40
2019-05-14T20:28:33.299Z,1.60
2019-05-14T20:31:02.241Z,1.60
2019-05-14T20:33:30.360Z,1.70
2019-05-14T20:35:58.946Z,1.67
2019-05-14T20:38:27.048Z,1.40
2019-05-14T20:40:55.036Z,2.07
2019-05-14T20:43:22.973Z,2.07
2019-05-14T20:45:51.141Z,2.30
2019-05-14T20:48:19.172Z,3.00
2019-05-14T20:50:46.998Z,2.83
2019-05-14T20:53:14.904Z,2.30
2019-05-14T20:55:42.892Z,2.33
2019-05-14T20:58:10.879Z,2.23
2019-05-14T21:00:41.447Z,1.77
2019-05-14T21:03:09.024Z,1.83
2019-05-14T21:05:38.849Z,1.90
2019-05-14T21:08:13.169Z,1.60
2019-05-14T21:10:38.479Z,1.70
2019-05-14T21:13:08.599Z,1.97
2019-05-14T21:16:12.248Z,1.80
2019-05-14T21:18:41.159Z,5.07
2019-05-14T21:21:10.991Z,4.00
2019-05-14T21:23:38.597Z,4.60
2019-05-14T21:26:08.604Z,4.73
2019-05-14T21:28:39.045Z,4.03
2019-05-14T21:31:10.228Z,3.77
2019-05-14T21:33:36.319Z,2.80
2019-05-14T21:36:04.318Z,3.00
2019-05-14T21:38:32.483Z,2.27
2019-05-14T21:41:01.051Z,2.33
2019-05-14T21:43:29.142Z,2.90
2019-05-14T21:45:58.670Z,3.27
2019-05-14T21:48:28.742Z,3.13
2019-05-14T21:51:00.570Z,3.10
2019-05-14T21:53:26.399Z,2.27
2019-05-14T21:55:54.352Z,2.23
2019-05-14T21:58:22.222Z,2.07
2019-05-14T22:00:53.491Z,1.90
2019-05-14T22:03:21.475Z,4.10
2019-05-14T22:05:51.506Z,3.67
2019-05-14T22:08:19.297Z,2.73
2019-05-14T22:10:48.876Z,1.90
2019-05-14T22:13:18.161Z,1.80
2019-05-14T22:15:46.191Z,1.80
2019-05-14T22:18:17.939Z,1.80
2019-05-14T22:20:43.921Z,1.70
2019-05-14T22:23:11.868Z,1.70
2019-05-14T22:25:39.865Z,1.90
2019-05-14T22:28:14.939Z,1.80
2019-05-14T22:30:38.818Z,2.40
2019-05-14T22:33:08.549Z,1.90
2019-05-14T22:35:39.217Z,1.83
2019-05-14T22:38:06.662Z,1.57
2019-05-14T22:40:34.557Z,1.63
2019-05-14T22:43:02.539Z,1.47
2019-05-14T22:45:30.454Z,1.60
2019-05-14T22:47:59.057Z,1.80
2019-05-14T22:50:29.171Z,1.30
2019-05-14T22:52:58.402Z,1.37
2019-05-14T22:55:30.974Z,1.43
2019-05-14T22:57:58.987Z,1.60
2019-05-14T23:00:28.538Z,1.60
2019-05-14T23:02:56.595Z,1.60
2019-05-14T23:05:25.156Z,1.60
2019-05-14T23:07:53.501Z,1.43
2019-05-14T23:10:21.725Z,1.53
2019-05-14T23:12:50.005Z,1.40
2019-05-14T23:15:18.392Z,1.57
2019-05-14T23:17:48.055Z,1.67
2019-05-14T23:20:16.136Z,1.37
2019-05-14T23:22:44.263Z,1.20
2019-05-14T23:25:12.910Z,1.20
2019-05-14T23:27:40.911Z,1.23
2019-05-14T23:30:09.280Z,1.50
2019-05-14T23:32:38.480Z,1.37
2019-05-14T23:35:07.375Z,1.40
2019-05-14T23:37:35.708Z,1.53
2019-05-14T23:40:04.343Z,1.50
2019-05-14T23:42:32.704Z,1.70
2019-05-14T23:45:00.984Z,1.43
2019-05-14T23:47:29.212Z,1.80
2019-05-14T23:49:58.405Z,1.80
2019-05-14T23:52:29.071Z,1.60
2019-05-14T23:54:56.237Z,1.63
2019-05-14T23:57:24.728Z,1.40
2019-05-14T23:59:53.037Z,1.40
